Time;durP1;ratioP1;P1;durP2;ratioP2;P2;SDS_P1;SDS_P2;PMS_P1;PMS_P2;Temp;Humidity;BMP_temperature;BMP_pressure;BME280_temperature;BME280_humidity;BME280_pressure;Samples;Min_cycle;Max_cycle;Signal;HPM_P1;HPM_P2
2022/11/16 00:00:17;;;;;;;9.73;4.15;;;;;;;;;;1031691;28;20022;-76
2022/11/16 00:00:48;;;;;;;9.57;3.60;;;;;;;;;;1033957;28;20073;-76
2022/11/16 00:01:24;;;;;;;5.15;3.25;;;;;;;;;;1034900;28;20029;-76
2022/11/16 00:01:55;;;;;;;11.55;4.45;;;;;;;;;;1033276;28;20025;-76
2022/11/16 00:02:26;;;;;;;7.63;2.90;;;;;;;;;;1034593;28;20025;-76
2022/11/16 00:02:56;;;;;;;12.23;3.53;;;;;;;;;;1033580;28;20018;-76
2022/11/16 00:03:27;;;;;;;7.75;3.17;;;;;;;;;;1033469;28;20498;-76
2022/11/16 00:03:58;;;;;;;8.73;3.67;;;;;;;;;;1033668;28;20033;-76
2022/11/16 00:04:29;;;;;;;6.97;3.38;;;;;;;;;;1033671;28;20029;-76
2022/11/16 00:05:00;;;;;;;12.23;3.97;;;;;;;;;;1033960;28;20033;-76
2022/11/16 00:05:30;;;;;;;7.93;3.53;;;;;;;;;;1031617;28;20039;-76
2022/11/16 00:06:02;;;;;;;6.03;3.55;;;;;;;;;;1027785;28;20019;-76
2022/11/16 00:06:33;;;;;;;6.38;3.13;;;;;;;;;;1030470;28;20607;-76
2022/11/16 00:07:03;;;;;;;8.98;3.58;;;;;;;;;;1031210;28;20125;-76
2022/11/16 00:07:34;;;;;;;11.07;3.10;;;;;;;;;;1031918;28;20029;-76
2022/11/16 00:08:04;;;;;;;6.93;3.80;;;;;;;;;;1035356;28;20816;-76
2022/11/16 00:08:36;;;;;;;8.07;3.90;;;;;;;;;;1031591;28;20037;-76
2022/11/16 00:09:22;;;;;;;4.65;3.33;;;;;;;;;;1031741;28;20363;-76
2022/11/16 00:09:52;;;;;;;6.88;3.22;;;;;;;;;;1034474;28;20120;-76
2022/11/16 00:10:23;;;;;;;16.50;3.97;;;;;;;;;;1033812;28;20026;-76
2022/11/16 00:10:54;;;;;;;5.28;3.10;;;;;;;;;;1033519;28;20433;-76
2022/11/16 00:11:24;;;;;;;11.10;4.60;;;;;;;;;;1033610;28;20128;-76
2022/11/16 00:11:56;;;;;;;8.88;3.00;;;;;;;;;;1033645;28;20026;-76
2022/11/16 00:12:27;;;;;;;6.05;2.60;;;;;;;;;;1034281;28;20030;-76
2022/11/16 00:12:57;;;;;;;6.68;3.63;;;;;;;;;;1033589;28;20041;-76
2022/11/16 00:13:28;;;;;;;4.70;3.40;;;;;;;;;;1035242;28;20501;-76
2022/11/16 00:13:58;;;;;;;5.50;2.58;;;;;;;;;;1033384;28;20022;-76
2022/11/16 00:14:30;;;;;;;5.60;2.47;;;;;;;;;;1034090;28;20394;-76
2022/11/16 00:15:01;;;;;;;6.57;2.58;;;;;;;;;;1031105;28;20015;-76
2022/11/16 00:15:31;;;;;;;7.00;2.95;;;;;;;;;;1029778;28;20117;-77
2022/11/16 00:16:03;;;;;;;7.82;3.30;;;;;;;;;;1031756;28;20033;-77
2022/11/16 00:16:33;;;;;;;8.70;3.15;;;;;;;;;;1031913;28;20026;-76
2022/11/16 00:17:04;;;;;;;7.28;2.67;;;;;;;;;;1033641;28;20026;-76
2022/11/16 00:17:35;;;;;;;4.13;2.55;;;;;;;;;;1034369;28;20702;-76
2022/11/16 00:18:05;;;;;;;5.80;2.97;;;;;;;;;;1028959;28;20046;-76
2022/11/16 00:18:36;;;;;;;6.95;2.58;;;;;;;;;;1028966;28;20041;-76
2022/11/16 00:19:07;;;;;;;5.47;2.83;;;;;;;;;;1033483;28;20026;-76
2022/11/16 00:19:37;;;;;;;5.82;2.75;;;;;;;;;;1033382;28;20033;-76
2022/11/16 00:20:08;;;;;;;4.05;2.58;;;;;;;;;;1033229;28;20057;-76
2022/11/16 00:20:39;;;;;;;3.97;2.97;;;;;;;;;;1034186;28;20474;-76
2022/11/16 00:21:09;;;;;;;6.28;2.50;;;;;;;;;;1032564;28;20088;-76
2022/11/16 00:21:40;;;;;;;5.18;2.53;;;;;;;;;;1034422;28;20053;-76
2022/11/16 00:22:11;;;;;;;4.72;2.67;;;;;;;;;;1033754;28;20030;-76
2022/11/16 00:22:41;;;;;;;6.40;3.35;;;;;;;;;;1033008;28;20022;-76
2022/11/16 00:23:12;;;;;;;10.25;3.20;;;;;;;;;;1033694;28;20536;-76
2022/11/16 00:23:42;;;;;;;4.72;2.85;;;;;;;;;;1033699;28;20030;-76
2022/11/16 00:24:14;;;;;;;5.13;2.75;;;;;;;;;;1033817;28;20082;-76
2022/11/16 00:24:45;;;;;;;6.25;2.85;;;;;;;;;;1033535;28;20032;-76
2022/11/16 00:25:15;;;;;;;3.65;2.67;;;;;;;;;;1033650;28;20027;-76
2022/11/16 00:25:46;;;;;;;4.53;2.83;;;;;;;;;;1033298;28;20548;-76
2022/11/16 00:26:16;;;;;;;4.28;2.55;;;;;;;;;;1033327;28;20022;-76
2022/11/16 00:26:47;;;;;;;5.88;2.25;;;;;;;;;;1033845;28;20038;-76
2022/11/16 00:27:17;;;;;;;3.45;2.00;;;;;;;;;;1033297;28;20025;-76
2022/11/16 00:27:48;;;;;;;4.35;2.20;;;;;;;;;;1033500;28;20116;-76
2022/11/16 00:28:19;;;;;;;4.40;1.95;;;;;;;;;;1031598;28;20490;-76
2022/11/16 00:28:51;;;;;;;3.35;1.85;;;;;;;;;;1035221;28;20052;-76
2022/11/16 00:29:23;;;;;;;5.60;2.63;;;;;;;;;;1031674;28;20026;-76
2022/11/16 00:29:54;;;;;;;4.63;1.98;;;;;;;;;;1031922;28;20026;-76
2022/11/16 00:30:25;;;;;;;6.15;2.13;;;;;;;;;;1033232;28;20367;-76
2022/11/16 00:31:00;;;;;;;4.68;2.60;;;;;;;;;;1034248;28;20026;-76
2022/11/16 00:31:30;;;;;;;3.60;2.08;;;;;;;;;;1034057;28;20026;-76
2022/11/16 00:32:01;;;;;;;7.82;2.15;;;;;;;;;;1033424;28;20500;-76
2022/11/16 00:32:32;;;;;;;4.90;1.98;;;;;;;;;;1032374;28;20034;-76
2022/11/16 00:33:03;;;;;;;5.15;2.28;;;;;;;;;;1033284;28;20050;-76
2022/11/16 00:33:34;;;;;;;4.80;2.30;;;;;;;;;;1033971;28;20457;-76
2022/11/16 00:34:05;;;;;;;3.05;1.63;;;;;;;;;;1034206;28;20061;-76
2022/11/16 00:34:36;;;;;;;6.75;3.03;;;;;;;;;;1033908;28;20474;-76
2022/11/16 00:35:07;;;;;;;6.68;3.25;;;;;;;;;;1033393;28;20030;-76
2022/11/16 00:35:38;;;;;;;5.50;2.40;;;;;;;;;;1034074;28;20065;-76
2022/11/16 00:36:10;;;;;;;3.53;2.03;;;;;;;;;;1033667;28;20069;-76
2022/11/16 00:36:41;;;;;;;4.93;2.25;;;;;;;;;;1033989;28;20041;-76
2022/11/16 00:37:11;;;;;;;4.45;2.40;;;;;;;;;;1033586;28;20030;-76
2022/11/16 00:37:42;;;;;;;5.32;2.55;;;;;;;;;;1033356;28;20041;-76
2022/11/16 00:38:12;;;;;;;3.65;2.10;;;;;;;;;;1032875;28;20057;-76
2022/11/16 00:38:43;;;;;;;4.15;2.10;;;;;;;;;;1034699;28;20022;-76
2022/11/16 00:39:15;;;;;;;4.13;2.13;;;;;;;;;;1033586;28;20121;-76
2022/11/16 00:39:45;;;;;;;2.97;1.50;;;;;;;;;;1033797;28;20096;-76
2022/11/16 00:40:16;;;;;;;1.80;1.45;;;;;;;;;;1033637;28;20072;-76
2022/11/16 00:40:46;;;;;;;4.32;2.45;;;;;;;;;;1033348;28;20469;-76
2022/11/16 00:41:17;;;;;;;3.72;1.63;;;;;;;;;;1033598;28;20113;-76
2022/11/16 00:41:48;;;;;;;2.60;2.35;;;;;;;;;;1033946;28;20512;-76
2022/11/16 00:42:18;;;;;;;4.45;2.10;;;;;;;;;;1033271;28;20029;-76
2022/11/16 00:42:49;;;;;;;4.97;2.47;;;;;;;;;;1034338;28;20030;-76
2022/11/16 00:43:19;;;;;;;3.75;1.83;;;;;;;;;;1033911;28;20022;-76
2022/11/16 00:43:50;;;;;;;3.13;1.67;;;;;;;;;;1033078;28;20038;-76
2022/11/16 00:44:21;;;;;;;3.85;2.00;;;;;;;;;;1031054;28;20483;-76
2022/11/16 00:44:51;;;;;;;7.63;2.35;;;;;;;;;;1029597;28;20517;-76
2022/11/16 00:45:22;;;;;;;4.32;1.25;;;;;;;;;;1029259;28;20059;-76
2022/11/16 00:45:53;;;;;;;4.50;2.47;;;;;;;;;;1026028;28;20031;-76
2022/11/16 00:46:23;;;;;;;5.70;2.40;;;;;;;;;;1029632;28;20153;-76
2022/11/16 00:46:54;;;;;;;4.43;2.10;;;;;;;;;;1029834;28;20073;-76
2022/11/16 00:47:25;;;;;;;5.95;1.98;;;;;;;;;;1029521;28;20022;-76
2022/11/16 00:47:55;;;;;;;5.07;2.63;;;;;;;;;;1034001;28;20113;-76
2022/11/16 00:48:26;;;;;;;2.88;1.30;;;;;;;;;;1032792;28;20025;-77
2022/11/16 00:48:57;;;;;;;6.25;2.72;;;;;;;;;;1033009;28;20488;-77
2022/11/16 00:49:27;;;;;;;4.38;1.95;;;;;;;;;;1033223;28;20018;-77
2022/11/16 00:49:58;;;;;;;4.78;2.35;;;;;;;;;;1033162;28;20062;-77
2022/11/16 00:50:28;;;;;;;9.95;1.88;;;;;;;;;;1033287;28;20128;-76
2022/11/16 00:50:59;;;;;;;6.20;2.22;;;;;;;;;;1034090;28;20544;-76
2022/11/16 00:51:30;;;;;;;4.93;2.30;;;;;;;;;;1033294;28;20022;-76
2022/11/16 00:52:00;;;;;;;5.05;2.65;;;;;;;;;;1033224;28;20022;-76
2022/11/16 00:52:31;;;;;;;3.50;2.08;;;;;;;;;;1033060;28;20401;-76
2022/11/16 00:53:02;;;;;;;8.25;2.67;;;;;;;;;;1032989;28;20116;-76
2022/11/16 00:53:34;;;;;;;5.20;2.60;;;;;;;;;;1033017;28;20076;-76
2022/11/16 00:54:05;;;;;;;4.28;2.47;;;;;;;;;;1034382;28;20029;-76
2022/11/16 00:54:36;;;;;;;5.80;2.35;;;;;;;;;;1033435;28;20049;-76
2022/11/16 00:55:06;;;;;;;5.32;1.77;;;;;;;;;;1032615;28;20513;-76
2022/11/16 00:55:37;;;;;;;3.33;1.98;;;;;;;;;;1033621;28;20104;-76
2022/11/16 00:56:07;;;;;;;11.18;1.90;;;;;;;;;;1033269;28;20108;-76
2022/11/16 00:56:38;;;;;;;4.05;1.70;;;;;;;;;;1033712;28;20050;-76
2022/11/16 00:57:09;;;;;;;4.93;2.35;;;;;;;;;;1032795;28;20033;-77
2022/11/16 00:57:39;;;;;;;6.07;3.00;;;;;;;;;;1034442;28;20101;-77
2022/11/16 00:58:10;;;;;;;4.10;2.35;;;;;;;;;;1033926;28;20113;-77
2022/11/16 00:58:41;;;;;;;4.05;2.33;;;;;;;;;;1032623;28;20036;-77
2022/11/16 00:59:11;;;;;;;4.32;1.90;;;;;;;;;;1033024;28;20037;-77
2022/11/16 00:59:42;;;;;;;3.22;1.90;;;;;;;;;;1034727;28;20014;-77
2022/11/16 01:00:13;;;;;;;5.03;2.83;;;;;;;;;;1033244;28;20034;-77
2022/11/16 01:00:43;;;;;;;2.70;1.92;;;;;;;;;;1034037;28;20059;-77
2022/11/16 01:01:14;;;;;;;3.05;2.00;;;;;;;;;;1033289;28;20034;-76
2022/11/16 01:01:45;;;;;;;3.05;1.45;;;;;;;;;;1033838;28;20029;-76
2022/11/16 01:02:16;;;;;;;16.38;2.75;;;;;;;;;;1034524;28;20120;-76
2022/11/16 01:02:46;;;;;;;2.88;1.30;;;;;;;;;;1033227;28;20023;-76
2022/11/16 01:03:17;;;;;;;3.88;2.00;;;;;;;;;;1033519;28;20026;-76
2022/11/16 01:03:47;;;;;;;6.93;2.67;;;;;;;;;;1035237;28;20135;-76
2022/11/16 01:04:18;;;;;;;3.45;2.17;;;;;;;;;;1031138;28;20037;-76
2022/11/16 01:04:49;;;;;;;7.97;2.22;;;;;;;;;;1031474;28;20034;-76
2022/11/16 01:05:20;;;;;;;2.10;1.52;;;;;;;;;;1031989;28;20524;-76
2022/11/16 01:05:50;;;;;;;10.10;2.72;;;;;;;;;;1033051;28;20018;-77
2022/11/16 01:06:22;;;;;;;5.00;2.72;;;;;;;;;;1033668;28;20061;-77
2022/11/16 01:06:52;;;;;;;4.95;1.60;;;;;;;;;;1030271;28;20033;-77
2022/11/16 01:07:23;;;;;;;4.80;1.85;;;;;;;;;;1031558;28;20585;-77
2022/11/16 01:07:54;;;;;;;6.28;2.15;;;;;;;;;;1033861;28;20537;-77
2022/11/16 01:08:24;;;;;;;3.88;2.53;;;;;;;;;;1032743;28;20576;-77
2022/11/16 01:08:55;;;;;;;4.97;2.67;;;;;;;;;;1032634;28;20030;-76
2022/11/16 01:09:25;;;;;;;6.05;2.33;;;;;;;;;;1033739;28;20409;-76
2022/11/16 01:09:56;;;;;;;5.35;1.95;;;;;;;;;;1033721;28;20022;-77
2022/11/16 01:10:27;;;;;;;4.35;2.20;;;;;;;;;;1031703;28;20030;-77
2022/11/16 01:12:07;;;;;;;2.78;1.85;;;;;;;;;;1033288;28;20028;-77
2022/11/16 01:12:37;;;;;;;5.50;2.70;;;;;;;;;;1032835;28;20075;-77
2022/11/16 01:13:09;;;;;;;3.70;2.50;;;;;;;;;;1033486;28;20022;-77
2022/11/16 01:13:39;;;;;;;4.35;1.63;;;;;;;;;;1033109;28;20148;-77
2022/11/16 01:14:10;;;;;;;2.90;1.73;;;;;;;;;;1030858;28;20026;-77
2022/11/16 01:14:42;;;;;;;5.20;3.08;;;;;;;;;;1033039;28;20025;-77
2022/11/16 01:15:13;;;;;;;6.72;2.05;;;;;;;;;;1034315;28;20113;-77
2022/11/16 01:15:47;;;;;;;3.65;2.05;;;;;;;;;;1033486;28;20145;-77
2022/11/16 01:16:18;;;;;;;10.20;1.98;;;;;;;;;;1032800;28;20067;-77
2022/11/16 01:16:49;;;;;;;15.13;2.40;;;;;;;;;;1032963;28;20034;-77
2022/11/16 01:17:20;;;;;;;7.57;2.45;;;;;;;;;;1030848;28;20026;-76
2022/11/16 01:17:51;;;;;;;4.30;2.13;;;;;;;;;;1028410;28;20444;-77
2022/11/16 01:18:22;;;;;;;6.38;2.47;;;;;;;;;;1025667;28;20023;-77
2022/11/16 01:18:53;;;;;;;5.43;1.70;;;;;;;;;;1031016;28;20031;-77
2022/11/16 01:19:24;;;;;;;5.97;2.67;;;;;;;;;;1033398;28;20501;-77
2022/11/16 01:19:54;;;;;;;7.00;2.20;;;;;;;;;;1031663;28;20124;-77
2022/11/16 01:20:26;;;;;;;4.30;2.45;;;;;;;;;;1032236;28;20019;-77
2022/11/16 01:20:57;;;;;;;6.82;3.13;;;;;;;;;;1033945;28;20057;-78
2022/11/16 01:21:27;;;;;;;10.23;2.67;;;;;;;;;;1032349;28;20060;-77
2022/11/16 01:21:58;;;;;;;6.50;3.47;;;;;;;;;;1033772;28;20026;-78
2022/11/16 01:22:29;;;;;;;8.02;4.22;;;;;;;;;;1034607;28;20057;-78
2022/11/16 01:22:59;;;;;;;3.75;2.25;;;;;;;;;;1031596;28;20502;-77
2022/11/16 01:23:30;;;;;;;5.57;2.60;;;;;;;;;;1033244;28;20397;-77
2022/11/16 01:24:01;;;;;;;4.22;2.72;;;;;;;;;;1033020;28;20029;-79
2022/11/16 01:24:31;;;;;;;7.00;4.03;;;;;;;;;;1034116;28;20026;-78
2022/11/16 01:25:02;;;;;;;4.68;2.85;;;;;;;;;;1032828;28;20109;-77
2022/11/16 01:25:33;;;;;;;5.95;2.92;;;;;;;;;;1034288;28;20108;-77
2022/11/16 01:26:03;;;;;;;4.28;2.50;;;;;;;;;;1033095;28;20497;-77
2022/11/16 01:26:34;;;;;;;4.78;3.13;;;;;;;;;;1033032;28;20030;-78
2022/11/16 01:27:04;;;;;;;8.13;3.30;;;;;;;;;;1031914;28;20037;-77
2022/11/16 01:27:35;;;;;;;3.75;1.73;;;;;;;;;;1032336;28;20026;-77
2022/11/16 01:28:06;;;;;;;4.38;2.15;;;;;;;;;;1032242;28;20436;-78
2022/11/16 01:28:36;;;;;;;7.53;4.03;;;;;;;;;;1031306;28;20108;-78
2022/11/16 01:29:07;;;;;;;6.45;1.98;;;;;;;;;;1033817;28;20042;-78
2022/11/16 01:29:38;;;;;;;6.70;2.20;;;;;;;;;;1032761;28;20521;-78
2022/11/16 01:30:10;;;;;;;4.22;1.63;;;;;;;;;;1029769;28;20033;-78
2022/11/16 01:30:46;;;;;;;5.70;1.88;;;;;;;;;;1024923;28;20118;-78
2022/11/16 01:31:17;;;;;;;3.50;1.88;;;;;;;;;;1027349;28;20026;-81
2022/11/16 01:31:48;;;;;;;6.68;1.90;;;;;;;;;;1029350;28;20026;-77
2022/11/16 01:32:19;;;;;;;4.68;2.42;;;;;;;;;;1031740;28;20049;-77
2022/11/16 01:32:50;;;;;;;14.93;3.35;;;;;;;;;;1031378;28;20014;-77
2022/11/16 01:33:22;;;;;;;5.10;1.80;;;;;;;;;;1033266;28;20052;-79
2022/11/16 01:33:53;;;;;;;6.20;2.30;;;;;;;;;;1032198;28;20087;-79
2022/11/16 01:34:24;;;;;;;7.85;2.92;;;;;;;;;;1030123;28;20022;-78
2022/11/16 01:34:55;;;;;;;10.18;2.45;;;;;;;;;;1033648;28;20469;-79
2022/11/16 01:35:26;;;;;;;4.28;2.05;;;;;;;;;;1033010;28;20766;-78
2022/11/16 01:35:57;;;;;;;4.97;2.33;;;;;;;;;;1030628;28;20097;-77
2022/11/16 01:36:28;;;;;;;6.25;2.53;;;;;;;;;;1034546;28;20026;-78
2022/11/16 01:36:58;;;;;;;4.70;2.50;;;;;;;;;;1030768;28;20029;-77
2022/11/16 01:37:29;;;;;;;5.65;2.22;;;;;;;;;;1031150;28;20597;-78
2022/11/16 01:37:59;;;;;;;7.18;2.97;;;;;;;;;;1033116;28;20059;-78
2022/11/16 01:38:31;;;;;;;5.43;2.45;;;;;;;;;;1032907;28;20136;-78
2022/11/16 01:39:02;;;;;;;5.70;2.35;;;;;;;;;;1031446;28;20026;-77
2022/11/16 01:39:32;;;;;;;5.38;3.13;;;;;;;;;;1032269;28;20017;-78
2022/11/16 01:40:03;;;;;;;6.07;3.45;;;;;;;;;;1032716;28;20116;-76
2022/11/16 01:40:34;;;;;;;9.85;4.68;;;;;;;;;;1032959;28;20382;-76
2022/11/16 01:41:05;;;;;;;8.07;4.18;;;;;;;;;;1031903;28;20105;-78
2022/11/16 01:41:35;;;;;;;6.85;2.97;;;;;;;;;;1033528;28;20041;-80
2022/11/16 01:42:06;;;;;;;5.28;2.38;;;;;;;;;;1031577;28;20037;-80
2022/11/16 01:42:37;;;;;;;6.43;3.78;;;;;;;;;;1030921;28;20144;-78
2022/11/16 01:43:15;;;;;;;6.15;3.72;;;;;;;;;;1026812;28;20026;-78
2022/11/16 01:43:48;;;;;;;12.77;3.35;;;;;;;;;;1023538;28;20503;-78
2022/11/16 01:44:31;;;;;;;8.20;3.67;;;;;;;;;;1024520;28;20055;-78
2022/11/16 01:45:24;;;;;;;5.05;2.97;;;;;;;;;;1030764;28;20028;-79
2022/11/16 01:45:55;;;;;;;14.85;3.60;;;;;;;;;;1032667;28;20075;-80
2022/11/16 01:46:26;;;;;;;10.52;3.72;;;;;;;;;;1031926;28;20022;-79
2022/11/16 01:47:01;;;;;;;5.47;3.30;;;;;;;;;;1032231;28;20349;-79
2022/11/16 01:47:33;;;;;;;6.57;2.33;;;;;;;;;;1032482;28;20026;-78
2022/11/16 01:48:06;;;;;;;5.82;2.97;;;;;;;;;;1031813;28;20099;-78
2022/11/16 01:48:40;;;;;;;12.77;3.50;;;;;;;;;;1032609;28;20018;-78
2022/11/16 01:49:12;;;;;;;7.53;3.45;;;;;;;;;;1031340;28;20092;-79
2022/11/16 01:49:47;;;;;;;8.60;4.32;;;;;;;;;;1033622;28;20026;-79
2022/11/16 01:50:18;;;;;;;7.88;3.95;;;;;;;;;;1034115;28;20034;-80
2022/11/16 01:50:49;;;;;;;7.13;4.43;;;;;;;;;;1029826;28;20050;-79
2022/11/16 01:51:20;;;;;;;11.18;3.63;;;;;;;;;;1034369;28;20021;-80
2022/11/16 01:51:54;;;;;;;7.57;3.90;;;;;;;;;;1031274;28;20072;-79
2022/11/16 01:52:30;;;;;;;8.40;4.00;;;;;;;;;;1033758;28;20079;-79
2022/11/16 01:53:03;;;;;;;7.25;4.05;;;;;;;;;;1033028;28;20036;-79
2022/11/16 01:53:36;;;;;;;8.13;3.83;;;;;;;;;;1029570;28;20414;-80
2022/11/16 01:54:09;;;;;;;5.13;3.33;;;;;;;;;;1032692;28;20071;-80
2022/11/16 01:54:41;;;;;;;12.93;4.38;;;;;;;;;;1029816;28;20108;-80
2022/11/16 01:55:12;;;;;;;10.25;3.88;;;;;;;;;;1029571;28;20031;-80
2022/11/16 01:55:45;;;;;;;7.35;3.95;;;;;;;;;;1029573;28;20036;-79
2022/11/16 01:56:16;;;;;;;7.05;3.53;;;;;;;;;;1027436;28;20128;-79
2022/11/16 01:56:48;;;;;;;14.32;4.50;;;;;;;;;;1029019;28;20034;-78
2022/11/16 01:57:23;;;;;;;4.88;2.85;;;;;;;;;;1026973;28;20038;-78
2022/11/16 01:57:57;;;;;;;7.50;2.97;;;;;;;;;;1031223;28;20033;-79
2022/11/16 01:58:28;;;;;;;7.03;3.70;;;;;;;;;;1028887;28;20018;-79
2022/11/16 01:59:00;;;;;;;7.30;3.67;;;;;;;;;;1026294;28;20096;-79
2022/11/16 01:59:32;;;;;;;12.23;3.50;;;;;;;;;;1031710;28;20030;-79
2022/11/16 02:00:04;;;;;;;8.55;3.85;;;;;;;;;;1027092;28;20045;-79
2022/11/16 02:00:35;;;;;;;9.05;3.58;;;;;;;;;;1029051;28;20117;-79
2022/11/16 02:01:06;;;;;;;8.00;4.13;;;;;;;;;;1029367;28;20029;-78
2022/11/16 02:01:37;;;;;;;11.55;3.70;;;;;;;;;;1026081;28;20117;-77
2022/11/16 02:02:10;;;;;;;6.95;3.53;;;;;;;;;;1028207;28;20022;-77
2022/11/16 02:02:41;;;;;;;6.10;3.20;;;;;;;;;;1028850;28;20383;-78
2022/11/16 02:03:12;;;;;;;7.47;4.07;;;;;;;;;;1027987;28;20037;-79
2022/11/16 02:03:42;;;;;;;8.00;3.67;;;;;;;;;;1034411;28;20069;-78
2022/11/16 02:04:13;;;;;;;7.13;3.53;;;;;;;;;;1030179;28;20026;-79
2022/11/16 02:04:44;;;;;;;8.15;3.92;;;;;;;;;;1028150;28;20026;-80
2022/11/16 02:05:20;;;;;;;7.28;3.78;;;;;;;;;;1026781;28;20041;-79
2022/11/16 02:06:03;;;;;;;8.13;3.70;;;;;;;;;;1031054;28;20097;-81
2022/11/16 02:06:42;;;;;;;6.72;3.78;;;;;;;;;;1033588;28;20050;-80
2022/11/16 02:07:13;;;;;;;11.38;4.50;;;;;;;;;;1032026;28;20029;-79
2022/11/16 02:10:04;;;;;;;7.68;3.85;;;;;;;;;;1034798;28;20034;-77
2022/11/16 02:10:42;;;;;;;9.52;4.53;;;;;;;;;;1032886;28;20026;-80
2022/11/16 02:11:21;;;;;;;12.32;4.90;;;;;;;;;;1033614;28;20030;-81
2022/11/16 02:12:12;;;;;;;10.23;4.85;;;;;;;;;;1035428;28;20026;-81
2022/11/16 02:13:00;;;;;;;11.57;5.70;;;;;;;;;;1032746;28;20050;-80
2022/11/16 02:13:42;;;;;;;13.43;6.80;;;;;;;;;;1035350;28;20393;-80
2022/11/16 02:14:24;;;;;;;15.90;6.15;;;;;;;;;;1031217;28;20050;-81
2022/11/16 02:15:00;;;;;;;13.65;6.63;;;;;;;;;;1032983;28;20029;-81
2022/11/16 02:15:35;;;;;;;17.75;6.82;;;;;;;;;;1030399;28;20018;-81
2022/11/16 02:16:06;;;;;;;19.58;7.97;;;;;;;;;;1026525;28;20026;-81
2022/11/16 02:16:56;;;;;;;13.40;7.45;;;;;;;;;;1027530;28;20122;-79
2022/11/16 02:17:38;;;;;;;12.80;6.75;;;;;;;;;;1026485;28;20616;-79
2022/11/16 02:18:24;;;;;;;15.88;7.45;;;;;;;;;;1030172;28;20026;-80
2022/11/16 02:18:55;;;;;;;13.55;6.55;;;;;;;;;;1028362;28;20522;-78
2022/11/16 02:19:44;;;;;;;15.95;9.85;;;;;;;;;;1027289;28;20074;-79
2022/11/16 02:20:20;;;;;;;18.60;7.70;;;;;;;;;;1027612;28;20134;-79
2022/11/16 02:21:09;;;;;;;16.33;7.25;;;;;;;;;;1030648;28;20036;-80
2022/11/16 02:22:00;;;;;;;19.30;7.65;;;;;;;;;;1034618;28;20050;-80
2022/11/16 02:22:51;;;;;;;24.98;8.20;;;;;;;;;;1033353;28;20572;-79
2022/11/16 02:23:42;;;;;;;12.13;6.22;;;;;;;;;;1033031;28;20072;-80
2022/11/16 02:24:26;;;;;;;17.48;6.20;;;;;;;;;;1044795;22;20133;-78
2022/11/16 02:25:07;;;;;;;20.55;9.85;;;;;;;;;;1043162;28;20033;-78
2022/11/16 02:25:49;;;;;;;18.02;6.28;;;;;;;;;;1042519;28;20009;-77
2022/11/16 02:26:28;;;;;;;15.02;6.00;;;;;;;;;;1043463;28;20021;-76
2022/11/16 02:27:18;;;;;;;17.05;7.40;;;;;;;;;;1044460;28;20017;-77
2022/11/16 02:28:04;;;;;;;16.17;8.02;;;;;;;;;;1037859;28;20111;-77
2022/11/16 02:28:42;;;;;;;20.05;8.07;;;;;;;;;;1035267;28;20566;-77
2022/11/16 02:29:32;;;;;;;16.60;6.97;;;;;;;;;;1038352;28;20524;-76
2022/11/16 02:30:04;;;;;;;15.73;7.53;;;;;;;;;;1037801;28;20037;-77
2022/11/16 02:30:36;;;;;;;17.13;6.93;;;;;;;;;;1041032;28;20037;-78
2022/11/16 02:31:10;;;;;;;13.75;6.28;;;;;;;;;;1039656;28;20075;-76
2022/11/16 02:32:06;;;;;;;11.82;6.28;;;;;;;;;;1034477;28;20026;-77
2022/11/16 02:32:46;;;;;;;8.55;4.95;;;;;;;;;;1038890;28;20061;-80
2022/11/16 02:33:29;;;;;;;11.07;5.90;;;;;;;;;;1037552;28;20038;-79
2022/11/16 02:34:03;;;;;;;15.32;6.15;;;;;;;;;;1036319;28;20056;-76
2022/11/16 02:34:41;;;;;;;12.85;6.47;;;;;;;;;;1036803;28;20066;-78
2022/11/16 02:35:20;;;;;;;12.52;6.65;;;;;;;;;;1036669;28;20025;-76
2022/11/16 02:35:53;;;;;;;24.70;8.68;;;;;;;;;;1032078;28;20583;-78
2022/11/16 02:36:25;;;;;;;15.48;6.72;;;;;;;;;;1037135;28;20057;-77
2022/11/16 02:36:58;;;;;;;13.35;6.53;;;;;;;;;;1035935;28;20577;-75
2022/11/16 02:37:34;;;;;;;16.42;6.97;;;;;;;;;;1036823;28;20068;-77
2022/11/16 02:38:10;;;;;;;13.55;6.47;;;;;;;;;;1031232;28;20116;-76
2022/11/16 02:38:44;;;;;;;14.70;8.18;;;;;;;;;;1033477;28;20033;-78
2022/11/16 02:39:18;;;;;;;11.45;6.15;;;;;;;;;;1034921;28;20535;-77
2022/11/16 02:39:52;;;;;;;14.23;7.95;;;;;;;;;;1033919;28;20109;-77
2022/11/16 02:40:24;;;;;;;18.65;7.18;;;;;;;;;;1034823;28;20034;-77
2022/11/16 02:41:10;;;;;;;10.80;5.13;;;;;;;;;;1027540;28;20030;-77
2022/11/16 02:41:43;;;;;;;12.15;6.78;;;;;;;;;;1031307;28;20045;-77
2022/11/16 02:42:17;;;;;;;15.77;7.05;;;;;;;;;;1030452;28;20223;-76
2022/11/16 02:43:06;;;;;;;13.73;5.85;;;;;;;;;;1028583;28;20099;-75
2022/11/16 02:43:42;;;;;;;10.88;5.60;;;;;;;;;;1033417;28;20030;-76
2022/11/16 02:44:17;;;;;;;15.20;5.50;;;;;;;;;;1031967;28;20106;-77
2022/11/16 02:44:50;;;;;;;13.43;6.35;;;;;;;;;;1038011;28;20595;-79
2022/11/16 02:45:23;;;;;;;26.50;7.57;;;;;;;;;;1037057;28;20045;-76
2022/11/16 02:45:57;;;;;;;16.98;6.90;;;;;;;;;;1036620;28;20029;-77
2022/11/16 02:46:31;;;;;;;8.40;5.65;;;;;;;;;;1034465;28;20025;-76
2022/11/16 02:47:09;;;;;;;18.52;5.78;;;;;;;;;;1031739;28;20073;-78
2022/11/16 02:47:41;;;;;;;10.98;5.30;;;;;;;;;;1030369;28;20691;-76
2022/11/16 02:48:20;;;;;;;20.90;6.65;;;;;;;;;;1032429;28;20024;-78
2022/11/16 02:48:52;;;;;;;9.73;4.75;;;;;;;;;;1035756;28;20462;-77
2022/11/16 02:49:25;;;;;;;10.02;5.68;;;;;;;;;;1034399;28;20562;-76
2022/11/16 02:50:08;;;;;;;11.93;4.82;;;;;;;;;;1031450;28;20026;-78
2022/11/16 02:50:39;;;;;;;8.25;4.50;;;;;;;;;;1026129;28;20034;-75
2022/11/16 02:51:11;;;;;;;11.50;5.60;;;;;;;;;;1022843;28;20041;-76
2022/11/16 02:51:42;;;;;;;13.88;7.22;;;;;;;;;;1023069;28;20114;-76
2022/11/16 02:52:14;;;;;;;12.18;5.80;;;;;;;;;;1026605;28;20062;-77
2022/11/16 02:52:44;;;;;;;8.27;5.25;;;;;;;;;;1031746;28;20045;-76
2022/11/16 02:53:15;;;;;;;9.13;4.35;;;;;;;;;;1034702;28;20048;-76
2022/11/16 02:54:04;;;;;;;9.48;4.38;;;;;;;;;;1037212;28;20427;-77
2022/11/16 02:54:41;;;;;;;13.18;5.45;;;;;;;;;;1030005;28;20790;-76
2022/11/16 02:55:12;;;;;;;14.20;5.93;;;;;;;;;;1030843;28;20034;-76
2022/11/16 02:55:43;;;;;;;21.17;4.97;;;;;;;;;;1030877;28;20057;-77
2022/11/16 02:56:14;;;;;;;17.25;7.00;;;;;;;;;;1032636;28;20030;-77
2022/11/16 02:56:55;;;;;;;20.15;6.65;;;;;;;;;;1033842;28;20033;-77
2022/11/16 02:57:31;;;;;;;14.25;5.80;;;;;;;;;;1035658;28;20025;-77
2022/11/16 02:58:04;;;;;;;21.33;9.82;;;;;;;;;;1031675;28;20032;-77
2022/11/16 02:58:36;;;;;;;15.18;7.18;;;;;;;;;;1027970;28;20030;-77
2022/11/16 02:59:09;;;;;;;24.13;8.27;;;;;;;;;;1027065;28;20034;-77
2022/11/16 02:59:53;;;;;;;20.30;9.35;;;;;;;;;;1023378;28;20022;-77
2022/11/16 03:00:42;;;;;;;25.23;10.32;;;;;;;;;;1025722;28;20424;-78
2022/11/16 03:01:27;;;;;;;17.15;9.02;;;;;;;;;;1032340;28;20128;-78
2022/11/16 03:02:14;;;;;;;23.08;10.82;;;;;;;;;;1032110;28;20026;-77
2022/11/16 03:02:54;;;;;;;16.95;7.90;;;;;;;;;;1036584;28;20124;-78
2022/11/16 03:03:42;;;;;;;21.58;9.70;;;;;;;;;;1032013;28;20033;-77
2022/11/16 03:04:24;;;;;;;21.73;9.35;;;;;;;;;;1034652;28;20568;-77
2022/11/16 03:05:15;;;;;;;18.92;9.02;;;;;;;;;;1033930;28;20656;-77
2022/11/16 03:05:54;;;;;;;20.50;8.60;;;;;;;;;;1034533;28;20056;-77
2022/11/16 03:06:30;;;;;;;22.55;9.55;;;;;;;;;;1030635;28;20027;-78
2022/11/16 03:07:05;;;;;;;16.60;9.63;;;;;;;;;;1029661;28;20065;-76
2022/11/16 03:07:57;;;;;;;19.25;9.20;;;;;;;;;;1024361;28;20023;-78
2022/11/16 03:08:37;;;;;;;23.55;10.75;;;;;;;;;;1031071;28;20025;-76
2022/11/16 03:09:11;;;;;;;20.67;9.77;;;;;;;;;;1038727;23;20030;-76
2022/11/16 03:09:43;;;;;;;19.50;9.70;;;;;;;;;;1034005;28;20045;-76
2022/11/16 03:11:58;;;;;;;18.90;8.90;;;;;;;;;;1028413;28;20038;-76
2022/11/16 03:12:01;;;;;;;;;;;;;;;;;;1033597;28;20030;-75
2022/11/16 03:12:34;;;;;;;30.83;12.27;;;;;;;;;;1036387;28;20404;-75
2022/11/16 03:13:08;;;;;;;15.23;8.27;;;;;;;;;;1035127;28;20025;-75
2022/11/16 03:13:40;;;;;;;17.27;9.40;;;;;;;;;;1031177;28;20137;-76
2022/11/16 03:14:18;;;;;;;25.38;9.27;;;;;;;;;;1027683;28;20085;-76
2022/11/16 03:14:59;;;;;;;22.23;10.30;;;;;;;;;;1028738;28;20023;-76
2022/11/16 03:15:31;;;;;;;30.23;11.48;;;;;;;;;;1029657;28;20072;-76
2022/11/16 03:16:08;;;;;;;24.88;10.50;;;;;;;;;;1030500;28;20030;-75
2022/11/16 03:16:42;;;;;;;22.38;11.07;;;;;;;;;;1032388;28;20514;-75
2022/11/16 03:17:27;;;;;;;22.05;10.38;;;;;;;;;;1029816;28;20181;-75
2022/11/16 03:17:59;;;;;;;21.33;8.80;;;;;;;;;;1026122;28;20026;-77
2022/11/16 03:18:47;;;;;;;26.52;9.82;;;;;;;;;;1028698;28;20026;-76
2022/11/16 03:19:23;;;;;;;19.55;10.18;;;;;;;;;;1032192;28;20030;-77
2022/11/16 03:19:56;;;;;;;22.30;10.20;;;;;;;;;;1029875;28;20578;-76
2022/11/16 03:20:31;;;;;;;27.10;11.73;;;;;;;;;;1030551;28;20510;-75
2022/11/16 03:21:07;;;;;;;28.33;10.18;;;;;;;;;;1032644;28;20505;-75
2022/11/16 03:21:44;;;;;;;22.52;12.82;;;;;;;;;;1034208;28;20029;-75
2022/11/16 03:22:35;;;;;;;30.83;11.80;;;;;;;;;;1034894;28;20037;-75
2022/11/16 03:23:09;;;;;;;22.85;11.68;;;;;;;;;;1036456;28;20057;-76
2022/11/16 03:23:40;;;;;;;25.05;11.75;;;;;;;;;;1033329;28;20029;-76
2022/11/16 03:24:11;;;;;;;33.05;12.65;;;;;;;;;;1033325;28;20029;-78
2022/11/16 03:24:42;;;;;;;30.52;11.93;;;;;;;;;;1035748;28;20058;-78
2022/11/16 03:25:15;;;;;;;21.73;11.32;;;;;;;;;;1036048;28;20105;-78